Time;durP1;ratioP1;P1;durP2;ratioP2;P2;SDS_P1;SDS_P2;PMS_P1;PMS_P2;Temp;Humidity;BMP_temperature;BMP_pressure;BME280_temperature;BME280_humidity;BME280_pressure;Samples;Min_cycle;Max_cycle;Signal;HPM_P1;HPM_P2
2024/02/23 00:01:05;;;;;;;1.10;1.00;;;10.30;99.90;;;;;;5083973;28;20439;-63
2024/02/23 00:03:31;;;;;;;0.93;0.90;;;10.30;99.90;;;;;;5077442;28;20523;-66
2024/02/23 00:05:58;;;;;;;0.80;0.80;;;10.40;99.90;;;;;;5085606;28;20503;-63
2024/02/23 00:08:24;;;;;;;1.10;1.00;;;10.30;99.90;;;;;;5084711;28;20174;-60
2024/02/23 00:10:50;;;;;;;2.17;1.00;;;10.30;99.90;;;;;;5092937;28;20756;-60
2024/02/23 00:13:15;;;;;;;1.30;1.20;;;10.30;99.90;;;;;;5084382;28;20165;-59
2024/02/23 00:15:41;;;;;;;1.30;1.20;;;10.30;99.90;;;;;;5087067;28;20170;-60
2024/02/23 00:18:08;;;;;;;1.50;1.40;;;10.40;99.90;;;;;;5080901;28;20561;-59
2024/02/23 00:20:33;;;;;;;1.33;1.03;;;10.50;99.90;;;;;;5080917;28;20281;-59
2024/02/23 00:22:59;;;;;;;1.53;1.40;;;10.50;99.90;;;;;;5080934;28;20575;-59
2024/02/23 00:25:24;;;;;;;2.20;1.40;;;10.50;99.90;;;;;;5081213;28;20513;-59
2024/02/23 00:27:50;;;;;;;2.10;1.10;;;10.60;99.90;;;;;;5080924;28;20177;-59
2024/02/23 00:30:16;;;;;;;1.30;1.20;;;10.60;99.90;;;;;;5091440;28;20740;-58
2024/02/23 00:32:41;;;;;;;1.60;1.10;;;10.60;99.90;;;;;;5092781;28;20176;-59
2024/02/23 00:35:07;;;;;;;1.00;0.90;;;10.60;99.90;;;;;;5078923;28;20224;-59
2024/02/23 00:37:35;;;;;;;1.27;1.20;;;10.60;99.90;;;;;;5079381;28;20197;-57
2024/02/23 00:40:05;;;;;;;1.00;0.90;;;10.60;99.90;;;;;;5089176;28;20190;-58
2024/02/23 00:42:31;;;;;;;1.90;1.23;;;10.60;99.90;;;;;;5080717;28;20865;-59
2024/02/23 00:44:56;;;;;;;1.17;1.00;;;10.50;99.90;;;;;;5080186;28;20419;-59
2024/02/23 00:47:22;;;;;;;1.47;1.30;;;10.50;99.90;;;;;;5080832;28;20804;-59
2024/02/23 00:49:47;;;;;;;1.53;1.20;;;10.50;99.90;;;;;;5078584;28;20202;-59
2024/02/23 00:52:13;;;;;;;1.73;1.20;;;10.50;99.90;;;;;;5081781;28;20264;-59
2024/02/23 00:54:39;;;;;;;3.43;1.70;;;10.50;99.90;;;;;;5080301;28;20209;-59
2024/02/23 00:57:05;;;;;;;1.23;1.00;;;10.50;99.90;;;;;;5071629;28;20484;-59
2024/02/23 00:59:31;;;;;;;1.37;1.17;;;10.50;99.90;;;;;;5075671;28;20207;-59
2024/02/23 01:01:56;;;;;;;1.30;1.20;;;10.50;99.90;;;;;;5079491;28;20236;-59
2024/02/23 01:04:22;;;;;;;1.50;1.30;;;10.60;99.90;;;;;;5075448;28;20440;-58
2024/02/23 01:06:47;;;;;;;1.30;1.20;;;10.60;99.90;;;;;;5073612;28;20182;-59
2024/02/23 01:09:16;;;;;;;4.20;1.13;;;10.60;99.90;;;;;;5080866;28;20240;-59
2024/02/23 01:11:41;;;;;;;1.50;1.40;;;10.50;99.90;;;;;;5077918;28;20186;-59
2024/02/23 01:14:07;;;;;;;1.80;1.13;;;10.60;99.90;;;;;;5088759;28;20950;-59
2024/02/23 01:16:32;;;;;;;1.33;1.10;;;10.50;99.90;;;;;;5079133;28;20208;-59
2024/02/23 01:18:58;;;;;;;1.67;1.33;;;10.50;99.90;;;;;;5091977;28;20213;-60
2024/02/23 01:21:24;;;;;;;3.47;1.07;;;10.50;99.90;;;;;;5091797;28;20170;-59
2024/02/23 01:23:49;;;;;;;1.33;1.10;;;10.60;99.90;;;;;;5091728;28;20211;-59
2024/02/23 01:26:15;;;;;;;1.37;1.27;;;10.60;99.90;;;;;;5072570;28;20177;-58
2024/02/23 01:28:40;;;;;;;1.50;1.20;;;10.60;99.90;;;;;;5071281;28;20307;-60
2024/02/23 01:31:10;;;;;;;2.33;1.03;;;10.60;99.90;;;;;;5070980;28;20236;-57
2024/02/23 01:33:37;;;;;;;1.00;1.00;;;10.70;99.90;;;;;;5086846;28;20219;-60
2024/02/23 01:36:04;;;;;;;1.10;1.00;;;10.70;99.90;;;;;;5071237;28;20424;-59
2024/02/23 01:38:32;;;;;;;1.47;1.30;;;10.70;99.90;;;;;;5071218;28;20479;-60
2024/02/23 01:40:58;;;;;;;1.53;1.13;;;10.80;99.90;;;;;;5078561;28;20396;-59
2024/02/23 01:43:24;;;;;;;1.33;1.00;;;10.70;99.90;;;;;;5080016;28;20403;-59
2024/02/23 01:45:49;;;;;;;1.60;1.50;;;10.80;99.90;;;;;;5071017;28;20419;-59
2024/02/23 01:48:16;;;;;;;1.30;1.00;;;10.80;99.90;;;;;;5069294;28;20185;-59
2024/02/23 01:50:44;;;;;;;1.20;1.10;;;10.90;99.90;;;;;;5085009;28;20203;-59
2024/02/23 01:53:10;;;;;;;0.80;0.80;;;10.90;99.90;;;;;;5091177;28;20415;-59
2024/02/23 01:55:37;;;;;;;1.30;1.20;;;10.90;99.90;;;;;;5091236;28;20410;-60
2024/02/23 01:58:04;;;;;;;1.10;1.00;;;10.90;99.90;;;;;;5091132;28;20807;-60
2024/02/23 02:00:31;;;;;;;1.03;0.90;;;11.00;99.90;;;;;;5091227;28;20490;-59
2024/02/23 02:02:57;;;;;;;1.77;1.37;;;11.00;99.90;;;;;;5090817;28;20416;-60
2024/02/23 02:05:23;;;;;;;2.50;0.93;;;11.10;99.90;;;;;;5089239;28;20430;-59
2024/02/23 02:07:53;;;;;;;2.57;1.10;;;11.10;99.90;;;;;;5091065;28;20499;-60
2024/02/23 02:10:20;;;;;;;0.80;0.80;;;11.10;99.90;;;;;;5091177;28;20200;-60
2024/02/23 02:12:46;;;;;;;1.20;0.93;;;11.10;99.90;;;;;;5090806;28;20435;-59
2024/02/23 02:15:11;;;;;;;2.30;0.90;;;11.10;99.90;;;;;;5090854;28;20525;-60
2024/02/23 02:17:37;;;;;;;1.43;1.33;;;11.10;99.90;;;;;;5090883;28;20735;-59
2024/02/23 02:20:06;;;;;;;1.10;0.80;;;11.10;99.90;;;;;;5101407;22;20300;-65
2024/02/23 02:22:33;;;;;;;3.53;0.93;;;11.00;99.90;;;;;;5062749;28;20232;-64
2024/02/23 02:24:59;;;;;;;0.70;0.70;;;11.00;99.90;;;;;;5071155;28;20427;-64
2024/02/23 02:27:24;;;;;;;0.80;0.80;;;11.00;99.90;;;;;;5070811;28;20986;-65
2024/02/23 02:29:51;;;;;;;2.93;0.90;;;11.00;99.90;;;;;;5070951;28;20237;-65
2024/02/23 02:32:16;;;;;;;2.30;0.90;;;11.00;99.90;;;;;;5060996;28;20533;-66
2024/02/23 02:34:42;;;;;;;1.40;1.00;;;10.90;99.90;;;;;;5070770;28;20424;-64
2024/02/23 02:37:08;;;;;;;0.80;0.80;;;10.90;99.90;;;;;;5071451;28;20703;-63
2024/02/23 02:39:34;;;;;;;2.20;0.80;;;10.90;99.90;;;;;;5074503;28;20545;-64
2024/02/23 02:41:59;;;;;;;0.87;0.80;;;10.80;99.90;;;;;;5074429;28;20424;-65
2024/02/23 02:44:26;;;;;;;1.27;0.70;;;10.70;99.90;;;;;;5074543;28;20182;-65
2024/02/23 02:46:52;;;;;;;1.10;0.80;;;10.70;99.90;;;;;;5074571;28;20508;-66
2024/02/23 02:49:17;;;;;;;0.87;0.80;;;10.60;99.90;;;;;;5074381;28;20470;-64
2024/02/23 02:51:45;;;;;;;0.90;0.70;;;10.60;99.90;;;;;;5074315;28;20271;-65
2024/02/23 02:54:10;;;;;;;0.90;0.80;;;10.40;99.90;;;;;;5074602;28;20189;-67
2024/02/23 02:56:36;;;;;;;0.80;0.73;;;10.40;99.90;;;;;;5075861;28;20459;-64
2024/02/23 02:59:01;;;;;;;1.53;1.00;;;10.40;99.90;;;;;;5075113;28;20263;-65
2024/02/23 03:01:27;;;;;;;0.80;0.80;;;10.30;99.90;;;;;;5074266;28;20194;-64
2024/02/23 03:03:52;;;;;;;1.27;0.93;;;10.30;99.90;;;;;;5074542;28;20274;-64
2024/02/23 03:06:18;;;;;;;0.73;0.70;;;10.30;99.90;;;;;;5074158;28;20188;-65
2024/02/23 03:08:44;;;;;;;0.60;0.60;;;10.20;99.90;;;;;;5074266;28;20557;-66
2024/02/23 03:11:09;;;;;;;0.90;0.60;;;10.20;99.90;;;;;;5073848;28;20238;-66
2024/02/23 03:13:35;;;;;;;0.77;0.70;;;10.10;99.90;;;;;;5073799;28;20182;-65
2024/02/23 03:16:01;;;;;;;0.60;0.60;;;10.00;99.90;;;;;;5073857;28;20186;-66
2024/02/23 03:18:29;;;;;;;0.60;0.60;;;10.00;99.90;;;;;;5073749;28;20411;-65
2024/02/23 03:20:55;;;;;;;0.80;0.70;;;10.00;99.90;;;;;;5073442;28;20213;-66
2024/02/23 03:23:21;;;;;;;1.90;0.80;;;10.00;99.90;;;;;;5055740;28;20432;-65
2024/02/23 03:25:46;;;;;;;0.70;0.70;;;9.90;99.90;;;;;;5074150;28;20198;-66
2024/02/23 03:28:12;;;;;;;0.80;0.80;;;9.90;99.90;;;;;;5073960;28;20209;-67
2024/02/23 03:30:37;;;;;;;0.90;0.70;;;9.90;99.90;;;;;;5074228;28;20289;-64
2024/02/23 03:33:03;;;;;;;6.13;0.90;;;9.80;99.90;;;;;;5073719;28;20190;-64
2024/02/23 03:35:29;;;;;;;1.67;0.80;;;9.80;99.90;;;;;;5073832;28;20651;-65
2024/02/23 03:37:54;;;;;;;1.07;0.70;;;9.70;99.90;;;;;;5073398;28;20619;-65
2024/02/23 03:40:20;;;;;;;5.03;0.80;;;9.70;99.90;;;;;;5073265;28;20211;-65
2024/02/23 03:42:45;;;;;;;1.23;0.97;;;9.70;99.90;;;;;;5073500;28;20181;-66
2024/02/23 03:45:11;;;;;;;1.27;0.80;;;9.70;99.90;;;;;;5073637;28;20178;-66
2024/02/23 03:47:38;;;;;;;2.67;0.70;;;9.70;99.90;;;;;;5064508;28;20181;-65
2024/02/23 03:50:04;;;;;;;1.27;0.80;;;9.60;99.90;;;;;;5072977;28;20209;-65
2024/02/23 03:52:30;;;;;;;1.00;0.90;;;9.60;99.90;;;;;;5072592;28;20420;-65
2024/02/23 03:54:55;;;;;;;1.57;0.70;;;9.60;99.90;;;;;;5073124;28;20524;-66
2024/02/23 03:57:21;;;;;;;1.67;0.70;;;9.60;99.90;;;;;;5072728;28;20201;-65
2024/02/23 03:59:54;;;;;;;1.30;0.80;;;9.60;99.90;;;;;;5073308;28;20207;-65
2024/02/23 04:02:20;;;;;;;1.23;0.83;;;9.60;99.90;;;;;;5072934;28;20179;-66
2024/02/23 04:04:46;;;;;;;0.80;0.73;;;9.60;99.90;;;;;;5072802;28;20522;-66
2024/02/23 04:07:11;;;;;;;1.03;0.60;;;9.50;99.90;;;;;;5072757;28;20416;-66
2024/02/23 04:09:37;;;;;;;1.13;0.70;;;9.50;99.90;;;;;;5072860;28;20185;-64
2024/02/23 04:12:03;;;;;;;1.10;0.73;;;9.50;99.90;;;;;;5072971;28;20213;-65
2024/02/23 04:14:28;;;;;;;0.90;0.70;;;9.40;99.90;;;;;;5072720;28;20193;-66
2024/02/23 04:16:54;;;;;;;0.73;0.60;;;9.50;99.90;;;;;;5072729;28;20455;-66
2024/02/23 04:19:20;;;;;;;1.00;0.80;;;9.50;99.90;;;;;;5072743;28;20186;-66
2024/02/23 04:21:45;;;;;;;2.37;2.17;;;9.40;99.90;;;;;;5072532;28;20202;-66
2024/02/23 04:24:12;;;;;;;2.30;0.87;;;9.30;99.90;;;;;;5072432;28;20214;-65
2024/02/23 04:26:37;;;;;;;1.43;0.90;;;9.40;99.90;;;;;;5072497;28;20287;-66
2024/02/23 04:29:03;;;;;;;2.10;0.90;;;9.30;99.90;;;;;;5072485;28;20998;-66
2024/02/23 04:31:28;;;;;;;2.30;0.67;;;9.20;99.90;;;;;;5072119;28;20250;-66
2024/02/23 04:33:54;;;;;;;0.70;0.70;;;9.20;99.90;;;;;;5072381;28;20839;-66
2024/02/23 04:36:23;;;;;;;1.53;0.90;;;9.10;99.90;;;;;;5072080;28;20219;-66
2024/02/23 04:38:48;;;;;;;2.23;0.77;;;9.10;99.90;;;;;;5072577;28;20185;-65
2024/02/23 04:41:14;;;;;;;3.73;0.87;;;9.20;99.90;;;;;;5072568;28;20883;-66
2024/02/23 04:43:39;;;;;;;1.10;1.00;;;9.20;99.90;;;;;;5072722;28;20191;-65
2024/02/23 04:46:05;;;;;;;1.03;0.80;;;9.10;99.90;;;;;;5072686;28;20190;-65
2024/02/23 04:48:31;;;;;;;1.10;0.67;;;9.10;99.90;;;;;;5072521;28;20225;-66
2024/02/23 04:50:57;;;;;;;0.90;0.80;;;9.10;99.90;;;;;;5072358;28;20248;-66
2024/02/23 04:53:23;;;;;;;1.10;0.70;;;9.10;99.90;;;;;;5072465;28;20186;-65
2024/02/23 04:55:48;;;;;;;0.80;0.80;;;9.10;99.90;;;;;;5072837;28;20977;-67
2024/02/23 04:58:14;;;;;;;1.97;0.80;;;9.10;99.90;;;;;;5073115;28;20209;-66
2024/02/23 05:00:40;;;;;;;0.80;0.80;;;9.10;99.90;;;;;;5071929;28;20285;-65
2024/02/23 05:03:06;;;;;;;0.80;0.80;;;9.10;99.90;;;;;;5072139;28;20188;-65
2024/02/23 05:05:32;;;;;;;0.70;0.70;;;9.10;99.90;;;;;;5072388;28;20288;-65
2024/02/23 05:07:58;;;;;;;2.80;0.77;;;9.00;99.90;;;;;;5072001;28;20887;-64
2024/02/23 05:10:24;;;;;;;1.47;0.90;;;9.00;99.90;;;;;;5071806;28;20561;-64
2024/02/23 05:12:50;;;;;;;1.17;0.80;;;9.10;99.90;;;;;;5072145;28;20508;-64
2024/02/23 05:15:15;;;;;;;4.20;1.20;;;9.10;99.90;;;;;;5071845;28;20195;-65
2024/02/23 05:17:41;;;;;;;1.67;0.90;;;9.00;99.90;;;;;;5071087;28;20465;-64
2024/02/23 05:20:10;;;;;;;0.73;0.73;;;9.00;99.90;;;;;;5071250;28;20712;-65
2024/02/23 05:22:36;;;;;;;0.80;0.80;;;8.90;99.90;;;;;;5071353;28;20206;-66
2024/02/23 05:25:01;;;;;;;0.90;0.67;;;8.80;99.90;;;;;;5073453;28;20424;-65
2024/02/23 05:27:27;;;;;;;0.80;0.67;;;8.70;99.90;;;;;;5072057;28;20424;-65
2024/02/23 05:29:53;;;;;;;0.80;0.70;;;8.60;99.90;;;;;;5071216;28;20204;-65
2024/02/23 05:32:19;;;;;;;0.90;0.73;;;8.60;99.90;;;;;;5070925;28;20556;-65
2024/02/23 05:34:44;;;;;;;2.50;1.33;;;8.40;99.90;;;;;;5071081;28;20480;-65
2024/02/23 05:37:10;;;;;;;1.23;1.07;;;8.40;99.90;;;;;;5071298;28;20198;-65
2024/02/23 05:39:37;;;;;;;1.90;1.20;;;8.40;99.90;;;;;;5070888;28;20507;-64
2024/02/23 05:42:03;;;;;;;0.90;0.80;;;8.30;99.90;;;;;;5071349;28;20428;-64
2024/02/23 05:44:29;;;;;;;1.20;1.10;;;8.20;99.90;;;;;;5071167;28;20462;-65
2024/02/23 05:46:55;;;;;;;3.93;0.90;;;8.20;99.90;;;;;;5071312;28;20459;-64
2024/02/23 05:49:20;;;;;;;3.60;1.20;;;8.10;99.90;;;;;;5044782;28;20192;-64
2024/02/23 05:51:46;;;;;;;1.00;0.90;;;8.10;99.90;;;;;;5044767;28;20205;-65
2024/02/23 05:54:12;;;;;;;1.07;1.07;;;8.00;99.90;;;;;;5071059;28;20214;-65
2024/02/23 05:56:38;;;;;;;0.73;0.73;;;7.90;99.90;;;;;;5070981;28;20196;-65
2024/02/23 05:59:03;;;;;;;0.70;0.70;;;7.80;99.90;;;;;;5071214;28;20425;-65
2024/02/23 06:01:29;;;;;;;1.77;1.20;;;7.80;99.90;;;;;;5071014;28;20209;-65
2024/02/23 06:03:55;;;;;;;2.20;1.20;;;7.70;99.90;;;;;;5071554;28;20275;-64
2024/02/23 06:06:20;;;;;;;1.67;0.90;;;7.60;99.90;;;;;;5071246;28;20260;-65
2024/02/23 06:08:46;;;;;;;1.00;0.80;;;7.70;99.90;;;;;;5071475;28;20171;-65
2024/02/23 06:11:12;;;;;;;3.40;0.90;;;7.70;99.90;;;;;;5072212;28;20206;-65
2024/02/23 06:13:37;;;;;;;2.20;1.10;;;7.70;99.90;;;;;;5074834;28;20183;-65
2024/02/23 06:16:05;;;;;;;2.53;1.67;;;7.70;99.90;;;;;;5074976;28;20194;-66
2024/02/23 06:18:30;;;;;;;1.17;1.07;;;7.70;99.90;;;;;;5074913;28;20187;-65
2024/02/23 06:20:56;;;;;;;2.27;0.80;;;7.70;99.90;;;;;;5074984;28;20486;-64
2024/02/23 06:23:22;;;;;;;1.63;1.13;;;7.60;99.90;;;;;;5074802;28;20189;-65
2024/02/23 06:25:47;;;;;;;1.17;0.90;;;7.60;99.90;;;;;;5074834;28;20185;-66
2024/02/23 06:28:13;;;;;;;3.17;1.37;;;7.60;99.90;;;;;;5074846;28;20182;-66
2024/02/23 06:30:39;;;;;;;4.47;1.17;;;7.60;99.90;;;;;;5074596;28;20213;-65
2024/02/23 06:33:05;;;;;;;2.20;1.10;;;7.60;99.90;;;;;;5074546;28;20613;-66
2024/02/23 06:35:32;;;;;;;1.13;0.83;;;7.60;99.90;;;;;;5074823;28;20278;-65
2024/02/23 06:37:57;;;;;;;1.87;0.80;;;7.50;99.90;;;;;;5075041;28;20935;-65
2024/02/23 06:40:23;;;;;;;1.10;0.93;;;7.50;99.90;;;;;;5074546;28;20444;-66
2024/02/23 06:42:50;;;;;;;1.73;1.10;;;7.50;99.90;;;;;;5074757;28;20187;-66
2024/02/23 06:45:16;;;;;;;0.80;0.73;;;7.50;99.90;;;;;;5074718;28;20190;-66
2024/02/23 06:47:44;;;;;;;1.73;1.00;;;7.60;99.90;;;;;;5074457;28;20425;-65
2024/02/23 06:50:09;;;;;;;0.70;0.70;;;7.50;99.90;;;;;;5074627;28;20219;-65
2024/02/23 06:52:35;;;;;;;1.10;1.00;;;7.60;99.90;;;;;;5074519;28;20434;-66
2024/02/23 06:55:01;;;;;;;1.20;1.10;;;7.60;99.90;;;;;;5074638;28;20192;-66
2024/02/23 06:57:26;;;;;;;0.80;0.80;;;7.70;99.90;;;;;;5074242;28;20218;-67
2024/02/23 06:59:52;;;;;;;1.90;1.07;;;7.70;99.90;;;;;;5074533;28;20195;-65
2024/02/23 07:02:18;;;;;;;1.77;1.20;;;7.70;99.90;;;;;;5074349;28;20180;-64
2024/02/23 07:04:44;;;;;;;1.23;1.03;;;7.80;99.90;;;;;;5074605;28;20416;-64
2024/02/23 07:07:11;;;;;;;2.50;1.17;;;7.90;99.90;;;;;;5074640;28;20254;-64
2024/02/23 07:09:37;;;;;;;1.80;1.20;;;8.00;99.90;;;;;;5074477;28;20210;-66
2024/02/23 07:12:03;;;;;;;2.50;1.47;;;8.00;99.90;;;;;;5074335;28;20452;-65
2024/02/23 07:14:28;;;;;;;1.43;1.20;;;8.00;99.90;;;;;;5074189;28;20184;-65
2024/02/23 07:16:54;;;;;;;1.57;1.20;;;8.00;99.90;;;;;;5074214;28;20464;-65
2024/02/23 07:19:20;;;;;;;1.83;0.90;;;8.00;99.90;;;;;;5074878;28;20626;-67
2024/02/23 07:21:46;;;;;;;7.73;1.23;;;8.00;99.90;;;;;;5074174;28;20630;-65
2024/02/23 07:24:11;;;;;;;2.47;1.10;;;8.10;99.90;;;;;;5073386;28;20450;-65
2024/02/23 07:26:37;;;;;;;2.17;1.07;;;8.10;99.90;;;;;;5074477;28;20184;-65
2024/02/23 07:29:03;;;;;;;2.20;1.30;;;8.10;99.90;;;;;;5074384;28;20196;-65
2024/02/23 07:31:30;;;;;;;0.80;0.80;;;8.00;99.90;;;;;;5074709;28;20327;-65
2024/02/23 07:33:56;;;;;;;1.57;0.70;;;8.00;99.90;;;;;;5075660;28;20426;-65
2024/02/23 07:36:21;;;;;;;0.80;0.80;;;8.00;99.90;;;;;;5073985;28;20219;-66
2024/02/23 07:38:47;;;;;;;1.93;0.87;;;8.00;99.90;;;;;;5073755;28;20238;-66
2024/02/23 07:41:14;;;;;;;0.90;0.80;;;8.00;99.90;;;;;;5073795;28;20208;-66
2024/02/23 07:43:40;;;;;;;0.97;0.87;;;8.00;99.90;;;;;;5073444;28;20771;-66
2024/02/23 07:46:08;;;;;;;2.40;1.10;;;8.00;99.90;;;;;;5073677;28;20431;-65
2024/02/23 07:48:36;;;;;;;1.20;1.10;;;8.00;99.90;;;;;;5073438;28;20267;-66
2024/02/23 07:51:04;;;;;;;1.20;1.10;;;8.10;99.90;;;;;;5073464;28;20456;-66
2024/02/23 07:53:30;;;;;;;2.00;0.77;;;8.00;99.90;;;;;;5073367;28;20912;-66
2024/02/23 07:55:56;;;;;;;1.03;0.93;;;8.10;99.90;;;;;;5071590;28;20431;-66
2024/02/23 07:58:21;;;;;;;1.27;1.17;;;8.10;99.90;;;;;;5073036;28;20208;-66
2024/02/23 08:00:47;;;;;;;2.10;1.00;;;8.10;99.90;;;;;;5072994;28;20447;-66
2024/02/23 08:03:13;;;;;;;1.17;1.07;;;8.20;99.90;;;;;;5066109;28;20223;-65
2024/02/23 08:05:38;;;;;;;0.90;0.90;;;8.30;99.90;;;;;;5066849;28;20714;-66
2024/02/23 08:08:06;;;;;;;1.00;0.90;;;8.50;99.90;;;;;;5066841;28;20190;-66
2024/02/23 08:10:32;;;;;;;2.23;1.30;;;9.00;99.90;;;;;;5069013;28;20232;-65
2024/02/23 08:12:58;;;;;;;0.80;0.80;;;9.00;99.90;;;;;;5069859;28;20896;-66
2024/02/23 08:15:24;;;;;;;0.73;0.70;;;9.40;99.90;;;;;;5072961;28;20197;-66
2024/02/23 08:17:49;;;;;;;1.30;0.80;;;9.60;99.90;;;;;;5072729;28;20460;-68
2024/02/23 08:20:15;;;;;;;1.00;0.90;;;10.30;99.90;;;;;;5072592;28;20231;-66
2024/02/23 08:22:41;;;;;;;0.93;0.80;;;10.00;99.90;;;;;;5072438;28;20192;-65
2024/02/23 08:25:07;;;;;;;0.90;0.70;;;10.20;99.90;;;;;;5072889;28;20181;-67
2024/02/23 08:27:33;;;;;;;1.20;0.87;;;10.10;99.90;;;;;;5072145;28;20283;-65
2024/02/23 08:29:59;;;;;;;1.30;0.90;;;10.20;99.90;;;;;;5075342;28;20628;-65
2024/02/23 08:32:25;;;;;;;2.43;1.00;;;10.30;99.90;;;;;;5077136;28;20424;-65
2024/02/23 08:34:52;;;;;;;1.23;0.80;;;10.40;99.90;;;;;;5072475;28;20191;-67
2024/02/23 08:37:18;;;;;;;0.80;0.70;;;10.10;99.90;;;;;;5075252;28;20489;-64
2024/02/23 08:39:44;;;;;;;1.03;0.93;;;9.80;99.90;;;;;;5072319;28;20501;-65
2024/02/23 08:42:10;;;;;;;1.87;1.27;;;9.80;99.90;;;;;;5072499;28;20875;-65
2024/02/23 08:44:39;;;;;;;2.67;2.00;;;9.70;99.90;;;;;;5072093;28;20344;-65
2024/02/23 08:47:05;;;;;;;2.40;1.80;;;9.70;99.90;;;;;;5072500;28;20957;-66
2024/02/23 08:49:31;;;;;;;1.30;1.10;;;9.70;99.90;;;;;;5072186;28;20425;-64
2024/02/23 08:51:58;;;;;;;3.47;0.80;;;9.50;99.90;;;;;;5072389;28;20527;-65
2024/02/23 08:54:25;;;;;;;0.97;0.87;;;9.40;99.90;;;;;;5072528;28;20974;-65
2024/02/23 08:56:51;;;;;;;0.70;0.70;;;9.40;99.90;;;;;;5037828;28;20464;-65
2024/02/23 08:59:17;;;;;;;0.70;0.70;;;9.30;99.90;;;;;;5072018;28;20431;-64
2024/02/23 09:01:44;;;;;;;0.60;0.60;;;9.40;99.90;;;;;;5071662;28;20497;-65
2024/02/23 09:04:10;;;;;;;1.53;0.77;;;9.30;99.90;;;;;;5071857;28;20420;-66
2024/02/23 09:06:35;;;;;;;0.70;0.70;;;9.40;99.90;;;;;;5071770;28;20432;-65
2024/02/23 09:09:01;;;;;;;0.93;0.80;;;9.50;99.90;;;;;;5071963;28;20565;-66
2024/02/23 09:11:27;;;;;;;2.03;1.00;;;9.70;99.90;;;;;;5020786;28;20214;-65
2024/02/23 09:13:52;;;;;;;1.50;0.90;;;10.30;99.90;;;;;;5071720;28;20239;-65
2024/02/23 09:16:18;;;;;;;1.47;0.70;;;10.40;99.90;;;;;;5071790;28;20649;-65
2024/02/23 09:18:44;;;;;;;1.30;1.10;;;10.30;99.90;;;;;;5071589;28;20186;-64
2024/02/23 09:21:10;;;;;;;3.60;1.90;;;10.20;99.90;;;;;;5071414;28;20448;-65
2024/02/23 09:23:35;;;;;;;1.93;1.30;;;10.50;99.90;;;;;;5071332;28;20673;-66
2024/02/23 09:26:01;;;;;;;1.60;1.13;;;11.00;99.90;;;;;;5071300;28;20183;-66
2024/02/23 09:28:26;;;;;;;3.27;1.00;;;11.70;99.90;;;;;;5071334;28;20197;-65
2024/02/23 09:30:52;;;;;;;1.80;0.90;;;11.60;99.90;;;;;;5071242;28;20732;-66
2024/02/23 09:33:17;;;;;;;11.13;4.23;;;11.60;99.90;;;;;;5071178;28;20562;-65
2024/02/23 09:35:43;;;;;;;3.23;1.60;;;11.20;99.90;;;;;;5070892;28;20185;-65
2024/02/23 09:38:09;;;;;;;4.97;1.80;;;11.00;99.90;;;;;;5071321;28;20214;-65
2024/02/23 09:40:34;;;;;;;1.97;1.00;;;11.00;99.90;;;;;;5072208;28;20247;-65
2024/02/23 09:43:00;;;;;;;2.10;0.90;;;10.70;99.90;;;;;;5072158;28;20183;-65
2024/02/23 09:45:29;;;;;;;6.70;1.00;;;10.50;99.90;;;;;;5071055;28;20189;-66
2024/02/23 09:47:56;;;;;;;1.27;0.90;;;10.70;99.90;;;;;;5071098;28;20198;-66
2024/02/23 09:50:26;;;;;;;1.73;1.47;;;10.40;99.90;;;;;;5071391;28;20444;-68
2024/02/23 09:52:52;;;;;;;16.23;10.37;;;10.50;99.90;;;;;;5070956;28;20973;-71
2024/02/23 09:55:18;;;;;;;1.47;1.37;;;10.60;99.90;;;;;;5071496;28;20478;-65
2024/02/23 09:57:46;;;;;;;3.63;1.40;;;10.30;99.90;;;;;;5070825;28;20218;-65
2024/02/23 10:00:12;;;;;;;1.20;0.90;;;10.60;99.90;;;;;;5071126;28;20586;-70
2024/02/23 10:02:39;;;;;;;1.23;0.90;;;10.50;99.90;;;;;;5070986;28;20425;-65
2024/02/23 10:05:07;;;;;;;0.70;0.70;;;10.30;99.90;;;;;;5071252;28;20420;-63
2024/02/23 10:07:33;;;;;;;0.77;0.70;;;10.00;99.90;;;;;;5070915;28;20416;-65
2024/02/23 10:09:59;;;;;;;1.57;0.90;;;9.90;99.90;;;;;;5070849;28;20456;-65
2024/02/23 10:12:24;;;;;;;0.70;0.70;;;10.10;99.90;;;;;;5071224;28;20178;-65
2024/02/23 10:14:50;;;;;;;1.10;0.80;;;10.30;99.90;;;;;;5070782;28;20440;-67
2024/02/23 10:17:15;;;;;;;4.73;3.00;;;10.20;99.90;;;;;;5070906;28;20285;-64
2024/02/23 10:19:41;;;;;;;0.83;0.80;;;10.10;99.90;;;;;;5065047;28;20202;-65
2024/02/23 10:22:06;;;;;;;0.93;0.80;;;9.90;99.90;;;;;;5067271;28;20202;-65
2024/02/23 10:24:32;;;;;;;1.63;0.63;;;10.00;99.90;;;;;;5063747;28;20200;-65
2024/02/23 10:26:58;;;;;;;1.87;1.00;;;10.00;99.90;;;;;;5056355;28;20183;-65
2024/02/23 10:29:23;;;;;;;0.70;0.70;;;10.00;99.90;;;;;;5063410;28;20182;-66
2024/02/23 10:31:52;;;;;;;0.87;0.80;;;9.90;99.90;;;;;;5070511;28;20308;-66
2024/02/23 10:34:19;;;;;;;0.70;0.70;;;9.90;99.90;;;;;;5070821;28;20807;-64
2024/02/23 10:36:47;;;;;;;4.73;1.10;;;10.10;99.90;;;;;;5075293;28;20464;-66
2024/02/23 10:39:17;;;;;;;0.70;0.70;;;10.00;99.90;;;;;;5070864;28;20479;-65
2024/02/23 10:41:47;;;;;;;0.70;0.60;;;10.10;99.90;;;;;;5070462;28;20440;-65
2024/02/23 10:44:16;;;;;;;0.90;0.70;;;10.30;99.90;;;;;;5070110;28;20838;-65
2024/02/23 10:46:42;;;;;;;2.93;0.70;;;10.20;99.90;;;;;;5070382;28;20428;-65
2024/02/23 10:49:07;;;;;;;4.40;0.90;;;10.30;99.90;;;;;;5069405;28;20424;-63
2024/02/23 10:51:33;;;;;;;1.00;0.70;;;10.40;99.90;;;;;;5061188;28;20700;-65
2024/02/23 10:54:00;;;;;;;1.07;0.97;;;10.20;99.90;;;;;;5067602;28;20214;-65
2024/02/23 10:56:27;;;;;;;1.87;0.83;;;10.10;99.90;;;;;;5070609;28;20463;-65
2024/02/23 10:58:52;;;;;;;1.30;0.90;;;10.40;99.90;;;;;;5038524;28;20436;-65
2024/02/23 11:01:20;;;;;;;1.10;0.80;;;10.30;99.90;;;;;;5074144;28;20789;-64
2024/02/23 11:03:50;;;;;;;2.87;1.10;;;10.30;99.90;;;;;;5073711;28;20178;-66
2024/02/23 11:06:20;;;;;;;1.17;0.90;;;10.40;99.90;;;;;;5072560;28;20424;-65
2024/02/23 11:08:47;;;;;;;1.10;0.80;;;10.50;99.90;;;;;;5071719;28;20435;-65
2024/02/23 11:11:17;;;;;;;1.27;0.90;;;10.60;99.90;;;;;;5063451;28;20778;-65
2024/02/23 11:13:45;;;;;;;2.97;0.90;;;10.40;99.90;;;;;;5071077;28;20444;-65
2024/02/23 11:16:10;;;;;;;0.90;0.80;;;10.30;99.90;;;;;;5073937;28;20464;-64
2024/02/23 11:18:38;;;;;;;0.87;0.70;;;10.30;99.90;;;;;;5074083;28;20467;-64
2024/02/23 11:21:06;;;;;;;1.30;1.20;;;10.10;99.90;;;;;;5065963;28;20206;-64
2024/02/23 11:23:51;;;;;;;3.57;1.20;;;10.40;99.90;;;;;;5070956;28;20424;-64
2024/02/23 11:26:17;;;;;;;1.17;1.07;;;10.50;99.90;;;;;;5067808;28;20419;-66
2024/02/23 11:28:53;;;;;;;2.13;0.80;;;10.50;99.90;;;;;;5073613;28;20413;-67
2024/02/23 11:31:28;;;;;;;2.10;0.80;;;10.60;99.90;;;;;;5056482;28;20432;-68
2024/02/23 11:33:55;;;;;;;1.90;0.97;;;10.60;99.90;;;;;;5073268;28;20427;-68
2024/02/23 11:36:29;;;;;;;2.80;0.90;;;10.40;99.90;;;;;;5077707;28;20921;-67
2024/02/23 11:38:57;;;;;;;2.60;1.33;;;10.40;99.90;;;;;;5074465;28;20423;-65
2024/02/23 11:41:24;;;;;;;1.00;0.80;;;10.30;99.90;;;;;;5073485;28;20775;-65
2024/02/23 11:43:55;;;;;;;1.57;0.77;;;10.40;99.90;;;;;;5073313;28;20516;-66
2024/02/23 11:46:21;;;;;;;2.63;0.80;;;10.50;99.90;;;;;;5073504;28;20427;-66
2024/02/23 11:48:53;;;;;;;1.10;0.80;;;10.50;99.90;;;;;;5073643;28;20409;-64
2024/02/23 11:51:23;;;;;;;4.00;1.10;;;10.50;99.90;;;;;;5074185;28;20440;-65
2024/02/23 11:53:49;;;;;;;1.10;0.90;;;10.70;99.90;;;;;;5073285;28;20421;-66
2024/02/23 11:56:14;;;;;;;0.90;0.70;;;10.60;99.90;;;;;;5073273;28;20432;-65
2024/02/23 11:58:41;;;;;;;2.70;1.00;;;10.50;99.90;;;;;;5072532;28;20439;-65
2024/02/23 12:01:07;;;;;;;0.70;0.70;;;10.70;99.90;;;;;;5070401;28;20284;-66
2024/02/23 12:03:33;;;;;;;2.90;1.10;;;10.50;99.90;;;;;;5073313;28;20899;-65
2024/02/23 12:06:01;;;;;;;0.97;0.87;;;10.40;99.90;;;;;;5073118;28;20320;-66
2024/02/23 12:08:30;;;;;;;3.03;0.93;;;10.40;99.90;;;;;;5073188;28;20413;-65
2024/02/23 12:10:56;;;;;;;2.97;0.93;;;10.50;99.90;;;;;;5073369;28;20448;-67
2024/02/23 12:13:22;;;;;;;1.17;0.90;;;10.40;99.90;;;;;;5073433;28;20413;-66
2024/02/23 12:15:52;;;;;;;1.83;0.90;;;10.60;99.90;;;;;;5050590;28;20419;-65
2024/02/23 12:18:23;;;;;;;1.63;0.90;;;10.70;99.90;;;;;;5072903;28;20536;-70
2024/02/23 12:20:49;;;;;;;1.83;0.90;;;10.70;99.90;;;;;;5073291;28;20497;-65
2024/02/23 12:23:15;;;;;;;1.93;1.13;;;10.60;99.90;;;;;;5051545;28;20781;-65
2024/02/23 12:25:52;;;;;;;1.13;0.90;;;10.70;99.90;;;;;;5068777;28;20401;-65
2024/02/23 12:28:18;;;;;;;2.73;1.17;;;10.80;99.90;;;;;;5066944;28;20416;-64
2024/02/23 12:30:46;;;;;;;0.90;0.80;;;10.50;99.90;;;;;;5073294;28;20440;-64
2024/02/23 12:33:15;;;;;;;3.63;0.93;;;10.30;99.90;;;;;;5066026;28;20413;-64
2024/02/23 12:35:41;;;;;;;2.00;0.73;;;10.40;99.90;;;;;;5069367;28;20496;-65
2024/02/23 12:38:07;;;;;;;1.93;0.80;;;10.30;99.90;;;;;;5079711;28;20554;-64
2024/02/23 12:40:32;;;;;;;1.43;1.00;;;10.30;99.90;;;;;;5072118;28;20224;-64
2024/02/23 12:42:58;;;;;;;1.70;0.87;;;10.30;99.90;;;;;;5072025;28;20183;-65
2024/02/23 12:45:23;;;;;;;2.03;1.60;;;10.40;99.90;;;;;;5072355;28;20590;-66